sensor_id;sensor_type;location;lat;lon;timestamp;pressure;altitude;pressure_sealevel;temperature;humidity
79372;BME280;68914;51.262;6.802;2023-09-30T00:00:22;102215.78;;;20.32;56.41
79372;BME280;68914;51.262;6.802;2023-09-30T00:01:23;102211.41;;;20.19;56.22
79372;BME280;68914;51.262;6.802;2023-09-30T00:02:23;102208.25;;;20.22;56.67
79372;BME280;68914;51.262;6.802;2023-09-30T00:03:24;102210.38;;;20.20;56.64
79372;BME280;68914;51.262;6.802;2023-09-30T00:04:28;102214.00;;;20.26;56.16
79372;BME280;68914;51.262;6.802;2023-09-30T00:05:30;102217.94;;;20.23;56.54
79372;BME280;68914;51.262;6.802;2023-09-30T00:06:30;102221.66;;;20.22;56.58
79372;BME280;68914;51.262;6.802;2023-09-30T00:07:31;102229.16;;;20.32;56.40
79372;BME280;68914;51.262;6.802;2023-09-30T00:08:32;102228.56;;;20.30;56.25
79372;BME280;68914;51.262;6.802;2023-09-30T00:09:32;102234.97;;;20.29;56.04
79372;BME280;68914;51.262;6.802;2023-09-30T00:10:33;102234.88;;;20.35;56.05
79372;BME280;68914;51.262;6.802;2023-09-30T00:11:33;102240.56;;;20.27;56.34
79372;BME280;68914;51.262;6.802;2023-09-30T00:12:35;102239.72;;;20.27;56.36
79372;BME280;68914;51.262;6.802;2023-09-30T00:13:35;102234.84;;;20.24;56.51
79372;BME280;68914;51.262;6.802;2023-09-30T00:14:36;102242.75;;;20.30;55.69
79372;BME280;68914;51.262;6.802;2023-09-30T00:15:38;102243.50;;;20.37;55.84
79372;BME280;68914;51.262;6.802;2023-09-30T00:16:39;102247.16;;;20.43;55.30
79372;BME280;68914;51.262;6.802;2023-09-30T00:17:39;102238.94;;;20.38;55.66
79372;BME280;68914;51.262;6.802;2023-09-30T00:18:40;102229.53;;;20.35;55.94
79372;BME280;68914;51.262;6.802;2023-09-30T00:19:43;102230.19;;;20.31;56.34
79372;BME280;68914;51.262;6.802;2023-09-30T00:20:45;102219.66;;;20.18;56.59
79372;BME280;68914;51.262;6.802;2023-09-30T00:21:49;102224.50;;;20.27;56.68
79372;BME280;68914;51.262;6.802;2023-09-30T00:22:50;102228.19;;;20.26;56.65
79372;BME280;68914;51.262;6.802;2023-09-30T00:23:50;102225.44;;;20.33;56.37
79372;BME280;68914;51.262;6.802;2023-09-30T00:24:51;102226.25;;;20.33;56.22
79372;BME280;68914;51.262;6.802;2023-09-30T00:25:52;102227.63;;;20.24;56.44
79372;BME280;68914;51.262;6.802;2023-09-30T00:26:54;102232.13;;;20.12;56.91
79372;BME280;68914;51.262;6.802;2023-09-30T00:27:56;102232.00;;;20.19;56.87
79372;BME280;68914;51.262;6.802;2023-09-30T00:28:58;102224.25;;;20.29;56.48
79372;BME280;68914;51.262;6.802;2023-09-30T00:29:58;102225.56;;;20.38;55.80
79372;BME280;68914;51.262;6.802;2023-09-30T00:30:59;102240.00;;;20.37;56.30
79372;BME280;68914;51.262;6.802;2023-09-30T00:31:59;102237.72;;;20.22;56.85
79372;BME280;68914;51.262;6.802;2023-09-30T00:33:00;102230.13;;;20.19;57.14
79372;BME280;68914;51.262;6.802;2023-09-30T00:34:01;102228.56;;;20.30;56.91
79372;BME280;68914;51.262;6.802;2023-09-30T00:35:02;102220.97;;;20.27;56.29
79372;BME280;68914;51.262;6.802;2023-09-30T00:36:10;102224.50;;;20.39;56.34
79372;BME280;68914;51.262;6.802;2023-09-30T00:37:12;102231.06;;;20.43;56.17
79372;BME280;68914;51.262;6.802;2023-09-30T00:38:13;102225.63;;;20.50;55.42
79372;BME280;68914;51.262;6.802;2023-09-30T00:39:15;102222.88;;;20.38;56.22
79372;BME280;68914;51.262;6.802;2023-09-30T00:40:18;102228.22;;;20.38;56.58
79372;BME280;68914;51.262;6.802;2023-09-30T00:41:19;102230.47;;;20.41;56.24
79372;BME280;68914;51.262;6.802;2023-09-30T00:42:22;102225.09;;;20.41;56.56
79372;BME280;68914;51.262;6.802;2023-09-30T00:43:23;102238.25;;;20.43;56.27
79372;BME280;68914;51.262;6.802;2023-09-30T00:44:26;102240.44;;;20.34;56.46
79372;BME280;68914;51.262;6.802;2023-09-30T00:45:28;102236.59;;;20.30;56.74
79372;BME280;68914;51.262;6.802;2023-09-30T00:46:30;102242.75;;;20.30;56.84
79372;BME280;68914;51.262;6.802;2023-09-30T00:47:32;102241.50;;;20.51;56.34
79372;BME280;68914;51.262;6.802;2023-09-30T00:48:34;102234.28;;;20.63;55.79
79372;BME280;68914;51.262;6.802;2023-09-30T00:49:35;102234.84;;;20.54;56.17
79372;BME280;68914;51.262;6.802;2023-09-30T00:50:35;102232.31;;;20.59;55.86
79372;BME280;68914;51.262;6.802;2023-09-30T00:51:36;102234.41;;;20.69;55.68
79372;BME280;68914;51.262;6.802;2023-09-30T00:52:38;102237.75;;;20.52;56.01
79372;BME280;68914;51.262;6.802;2023-09-30T00:53:39;102239.38;;;20.53;56.28
79372;BME280;68914;51.262;6.802;2023-09-30T00:54:40;102236.97;;;20.33;56.99
79372;BME280;68914;51.262;6.802;2023-09-30T00:55:41;102235.06;;;20.22;57.47
79372;BME280;68914;51.262;6.802;2023-09-30T00:56:46;102241.88;;;20.36;57.27
79372;BME280;68914;51.262;6.802;2023-09-30T00:57:47;102233.97;;;20.42;56.96
79372;BME280;68914;51.262;6.802;2023-09-30T00:58:48;102234.84;;;20.54;56.73
79372;BME280;68914;51.262;6.802;2023-09-30T00:59:51;102242.97;;;20.47;56.19
79372;BME280;68914;51.262;6.802;2023-09-30T01:00:53;102233.13;;;20.41;56.82
79372;BME280;68914;51.262;6.802;2023-09-30T01:01:54;102246.09;;;20.44;56.47
79372;BME280;68914;51.262;6.802;2023-09-30T01:02:58;102248.34;;;20.29;56.98
79372;BME280;68914;51.262;6.802;2023-09-30T01:04:07;102252.13;;;20.39;56.74
79372;BME280;68914;51.262;6.802;2023-09-30T01:05:08;102261.88;;;20.52;56.59
79372;BME280;68914;51.262;6.802;2023-09-30T01:06:09;102263.16;;;20.61;56.34
79372;BME280;68914;51.262;6.802;2023-09-30T01:07:10;102256.75;;;20.62;55.65
79372;BME280;68914;51.262;6.802;2023-09-30T01:08:11;102263.03;;;20.56;56.11
79372;BME280;68914;51.262;6.802;2023-09-30T01:09:12;102261.19;;;20.57;56.01
79372;BME280;68914;51.262;6.802;2023-09-30T01:10:13;102252.69;;;20.60;55.95
79372;BME280;68914;51.262;6.802;2023-09-30T01:11:14;102248.31;;;20.47;56.62
79372;BME280;68914;51.262;6.802;2023-09-30T01:12:15;102239.56;;;20.40;56.84
79372;BME280;68914;51.262;6.802;2023-09-30T01:13:16;102238.41;;;20.48;56.85
79372;BME280;68914;51.262;6.802;2023-09-30T01:14:31;102231.34;;;20.53;56.33
79372;BME280;68914;51.262;6.802;2023-09-30T01:16:49;102217.31;;;20.09;58.07
79372;BME280;68914;51.262;6.802;2023-09-30T01:17:51;102213.78;;;20.27;57.41
79372;BME280;68914;51.262;6.802;2023-09-30T01:18:51;102221.03;;;20.08;57.83
79372;BME280;68914;51.262;6.802;2023-09-30T01:19:52;102223.84;;;20.13;58.33
79372;BME280;68914;51.262;6.802;2023-09-30T01:20:53;102221.13;;;20.32;57.65
79372;BME280;68914;51.262;6.802;2023-09-30T01:21:56;102227.69;;;20.18;57.57
79372;BME280;68914;51.262;6.802;2023-09-30T01:23:06;102236.94;;;20.52;57.43
79372;BME280;68914;51.262;6.802;2023-09-30T01:24:07;102235.88;;;20.53;57.25
79372;BME280;68914;51.262;6.802;2023-09-30T01:25:08;102246.97;;;20.38;57.68
79372;BME280;68914;51.262;6.802;2023-09-30T01:26:12;102246.13;;;20.26;58.14
79372;BME280;68914;51.262;6.802;2023-09-30T01:27:13;102256.97;;;20.31;57.85
79372;BME280;68914;51.262;6.802;2023-09-30T01:28:16;102259.94;;;20.41;57.59
79372;BME280;68914;51.262;6.802;2023-09-30T01:29:17;102264.75;;;20.51;57.42
79372;BME280;68914;51.262;6.802;2023-09-30T01:30:19;102263.81;;;20.27;57.54
79372;BME280;68914;51.262;6.802;2023-09-30T01:31:20;102262.06;;;20.51;57.40
79372;BME280;68914;51.262;6.802;2023-09-30T01:32:20;102263.44;;;20.42;57.91
79372;BME280;68914;51.262;6.802;2023-09-30T01:33:22;102258.25;;;20.58;57.40
79372;BME280;68914;51.262;6.802;2023-09-30T01:34:23;102253.75;;;20.59;56.80
79372;BME280;68914;51.262;6.802;2023-09-30T01:35:24;102249.69;;;20.08;58.34
79372;BME280;68914;51.262;6.802;2023-09-30T01:36:27;102245.41;;;20.19;58.53
79372;BME280;68914;51.262;6.802;2023-09-30T01:37:29;102244.81;;;20.17;58.53
79372;BME280;68914;51.262;6.802;2023-09-30T01:38:30;102248.56;;;19.97;59.15
79372;BME280;68914;51.262;6.802;2023-09-30T01:39:30;102242.59;;;19.95;59.03
79372;BME280;68914;51.262;6.802;2023-09-30T01:40:31;102246.69;;;20.16;58.36
79372;BME280;68914;51.262;6.802;2023-09-30T01:41:31;102243.25;;;20.27;58.59
79372;BME280;68914;51.262;6.802;2023-09-30T01:42:32;102249.03;;;20.54;57.61
79372;BME280;68914;51.262;6.802;2023-09-30T01:43:34;102247.31;;;20.30;57.70
79372;BME280;68914;51.262;6.802;2023-09-30T01:44:37;102255.84;;;20.08;58.32
79372;BME280;68914;51.262;6.802;2023-09-30T01:45:37;102252.06;;;19.98;59.46
79372;BME280;68914;51.262;6.802;2023-09-30T01:46:38;102245.56;;;20.24;58.44
79372;BME280;68914;51.262;6.802;2023-09-30T01:47:38;102243.22;;;19.97;58.58
79372;BME280;68914;51.262;6.802;2023-09-30T01:48:39;102240.44;;;19.49;60.17
79372;BME280;68914;51.262;6.802;2023-09-30T01:49:40;102246.91;;;19.41;60.34
79372;BME280;68914;51.262;6.802;2023-09-30T01:50:40;102248.56;;;19.60;60.01
79372;BME280;68914;51.262;6.802;2023-09-30T01:51:41;102247.91;;;19.83;59.27
79372;BME280;68914;51.262;6.802;2023-09-30T01:52:42;102252.31;;;19.96;59.08
79372;BME280;68914;51.262;6.802;2023-09-30T01:53:43;102267.63;;;19.89;59.31
79372;BME280;68914;51.262;6.802;2023-09-30T01:54:43;102260.97;;;20.10;58.80
79372;BME280;68914;51.262;6.802;2023-09-30T01:55:44;102269.53;;;19.82;59.41
79372;BME280;68914;51.262;6.802;2023-09-30T01:56:45;102266.06;;;20.00;58.39
79372;BME280;68914;51.262;6.802;2023-09-30T01:57:45;102270.34;;;20.01;58.75
79372;BME280;68914;51.262;6.802;2023-09-30T01:58:46;102277.41;;;20.13;58.24
79372;BME280;68914;51.262;6.802;2023-09-30T01:59:47;102282.75;;;19.95;58.43
79372;BME280;68914;51.262;6.802;2023-09-30T02:00:52;102279.78;;;19.67;59.50
79372;BME280;68914;51.262;6.802;2023-09-30T02:01:52;102280.06;;;19.58;59.94
79372;BME280;68914;51.262;6.802;2023-09-30T02:02:56;102279.50;;;19.93;59.13
79372;BME280;68914;51.262;6.802;2023-09-30T02:03:57;102276.63;;;19.76;59.05
79372;BME280;68914;51.262;6.802;2023-09-30T02:04:58;102276.06;;;19.24;60.65
79372;BME280;68914;51.262;6.802;2023-09-30T02:05:59;102289.00;;;19.52;60.11
79372;BME280;68914;51.262;6.802;2023-09-30T02:06:59;102297.19;;;19.94;58.87
79372;BME280;68914;51.262;6.802;2023-09-30T02:08:01;102295.72;;;20.17;58.38
79372;BME280;68914;51.262;6.802;2023-09-30T02:09:06;102289.09;;;20.01;58.26
79372;BME280;68914;51.262;6.802;2023-09-30T02:10:09;102275.59;;;20.26;57.67
79372;BME280;68914;51.262;6.802;2023-09-30T02:11:10;102280.59;;;20.22;57.68
79372;BME280;68914;51.262;6.802;2023-09-30T02:12:13;102281.25;;;20.36;57.22
79372;BME280;68914;51.262;6.802;2023-09-30T02:13:14;102280.06;;;20.32;57.40
79372;BME280;68914;51.262;6.802;2023-09-30T02:14:15;102286.81;;;20.34;57.06
79372;BME280;68914;51.262;6.802;2023-09-30T02:15:16;102287.84;;;20.33;57.05
79372;BME280;68914;51.262;6.802;2023-09-30T02:16:17;102285.03;;;20.28;57.31
79372;BME280;68914;51.262;6.802;2023-09-30T02:17:17;102292.97;;;20.35;57.09
79372;BME280;68914;51.262;6.802;2023-09-30T02:18:18;102289.72;;;20.33;56.78
79372;BME280;68914;51.262;6.802;2023-09-30T02:19:21;102293.28;;;20.27;57.06
79372;BME280;68914;51.262;6.802;2023-09-30T02:20:22;102294.09;;;19.97;57.88
79372;BME280;68914;51.262;6.802;2023-09-30T02:21:26;102288.47;;;20.17;57.38
79372;BME280;68914;51.262;6.802;2023-09-30T02:22:27;102283.81;;;20.12;57.49
79372;BME280;68914;51.262;6.802;2023-09-30T02:23:28;102280.13;;;20.25;56.75
79372;BME280;68914;51.262;6.802;2023-09-30T02:24:29;102275.09;;;19.99;57.41
79372;BME280;68914;51.262;6.802;2023-09-30T02:25:30;102275.84;;;19.87;57.89
79372;BME280;68914;51.262;6.802;2023-09-30T02:26:32;102278.47;;;19.76;58.48
79372;BME280;68914;51.262;6.802;2023-09-30T02:27:33;102275.41;;;19.90;58.24
79372;BME280;68914;51.262;6.802;2023-09-30T02:28:34;102265.31;;;19.93;57.89
79372;BME280;68914;51.262;6.802;2023-09-30T02:29:35;102268.00;;;19.93;57.90
79372;BME280;68914;51.262;6.802;2023-09-30T02:30:38;102266.00;;;19.88;57.91
79372;BME280;68914;51.262;6.802;2023-09-30T02:31:38;102267.75;;;19.76;58.63
79372;BME280;68914;51.262;6.802;2023-09-30T02:32:42;102268.13;;;19.79;58.26
79372;BME280;68914;51.262;6.802;2023-09-30T02:33:43;102269.53;;;19.82;57.65
79372;BME280;68914;51.262;6.802;2023-09-30T02:34:44;102260.69;;;19.81;58.41
79372;BME280;68914;51.262;6.802;2023-09-30T02:35:45;102254.00;;;19.90;57.76
79372;BME280;68914;51.262;6.802;2023-09-30T02:36:46;102255.59;;;19.80;57.86
79372;BME280;68914;51.262;6.802;2023-09-30T02:37:46;102253.63;;;20.05;57.30
79372;BME280;68914;51.262;6.802;2023-09-30T02:38:47;102256.09;;;19.70;57.93
79372;BME280;68914;51.262;6.802;2023-09-30T02:39:50;102256.31;;;19.87;57.54
79372;BME280;68914;51.262;6.802;2023-09-30T02:40:51;102259.69;;;19.57;58.24
79372;BME280;68914;51.262;6.802;2023-09-30T02:41:52;102258.84;;;19.38;59.30
79372;BME280;68914;51.262;6.802;2023-09-30T02:42:53;102260.06;;;19.61;58.88
79372;BME280;68914;51.262;6.802;2023-09-30T02:43:54;102257.13;;;19.26;59.79
79372;BME280;68914;51.262;6.802;2023-09-30T02:44:55;102260.66;;;19.45;59.56
79372;BME280;68914;51.262;6.802;2023-09-30T02:45:55;102265.53;;;19.73;58.75
79372;BME280;68914;51.262;6.802;2023-09-30T02:46:56;102272.81;;;19.65;58.71
79372;BME280;68914;51.262;6.802;2023-09-30T02:47:57;102272.03;;;19.58;58.42
79372;BME280;68914;51.262;6.802;2023-09-30T02:48:57;102278.53;;;19.26;59.70
79372;BME280;68914;51.262;6.802;2023-09-30T02:49:58;102269.06;;;19.05;60.65
79372;BME280;68914;51.262;6.802;2023-09-30T02:50:58;102268.59;;;19.33;60.01
79372;BME280;68914;51.262;6.802;2023-09-30T02:51:59;102278.53;;;19.26;60.45
79372;BME280;68914;51.262;6.802;2023-09-30T02:53:00;102273.84;;;19.21;59.97
79372;BME280;68914;51.262;6.802;2023-09-30T02:54:02;102280.88;;;19.40;59.48
79372;BME280;68914;51.262;6.802;2023-09-30T02:55:03;102285.59;;;19.38;59.49
79372;BME280;68914;51.262;6.802;2023-09-30T02:56:04;102281.66;;;18.98;60.89
79372;BME280;68914;51.262;6.802;2023-09-30T02:57:05;102285.69;;;19.07;60.61
79372;BME280;68914;51.262;6.802;2023-09-30T02:58:08;102284.06;;;19.24;60.00
79372;BME280;68914;51.262;6.802;2023-09-30T02:59:09;102277.72;;;19.44;59.40
79372;BME280;68914;51.262;6.802;2023-09-30T03:00:10;102293.78;;;19.69;58.56
79372;BME280;68914;51.262;6.802;2023-09-30T03:01:23;102288.81;;;19.72;58.08
79372;BME280;68914;51.262;6.802;2023-09-30T03:02:26;102291.38;;;19.60;58.68
79372;BME280;68914;51.262;6.802;2023-09-30T03:03:27;102291.78;;;19.64;58.62
79372;BME280;68914;51.262;6.802;2023-09-30T03:04:30;102289.09;;;19.39;59.41
79372;BME280;68914;51.262;6.802;2023-09-30T03:05:31;102288.13;;;19.08;60.35
79372;BME280;68914;51.262;6.802;2023-09-30T03:06:34;102287.66;;;18.93;61.30
79372;BME280;68914;51.262;6.802;2023-09-30T03:07:37;102281.25;;;18.94;61.11
79372;BME280;68914;51.262;6.802;2023-09-30T03:08:38;102282.69;;;19.40;59.71
79372;BME280;68914;51.262;6.802;2023-09-30T03:09:39;102292.25;;;19.54;59.28
79372;BME280;68914;51.262;6.802;2023-09-30T03:10:39;102284.56;;;19.64;58.61
79372;BME280;68914;51.262;6.802;2023-09-30T03:11:41;102279.16;;;19.46;59.08
79372;BME280;68914;51.262;6.802;2023-09-30T03:12:42;102289.66;;;19.23;59.67
79372;BME280;68914;51.262;6.802;2023-09-30T03:13:43;102290.00;;;19.33;59.53
79372;BME280;68914;51.262;6.802;2023-09-30T03:14:44;102286.50;;;19.07;60.22
79372;BME280;68914;51.262;6.802;2023-09-30T03:15:47;102284.00;;;19.12;60.25
79372;BME280;68914;51.262;6.802;2023-09-30T03:16:52;102283.16;;;19.37;59.35
79372;BME280;68914;51.262;6.802;2023-09-30T03:17:52;102278.72;;;19.49;59.17
79372;BME280;68914;51.262;6.802;2023-09-30T03:18:53;102283.81;;;19.32;59.47
79372;BME280;68914;51.262;6.802;2023-09-30T03:19:56;102275.53;;;19.15;59.79
79372;BME280;68914;51.262;6.802;2023-09-30T03:21:01;102280.78;;;19.47;59.06
79372;BME280;68914;51.262;6.802;2023-09-30T03:22:02;102273.22;;;19.19;59.62
79372;BME280;68914;51.262;6.802;2023-09-30T03:23:05;102276.38;;;19.34;58.86
79372;BME280;68914;51.262;6.802;2023-09-30T03:24:06;102283.16;;;19.37;59.60
79372;BME280;68914;51.262;6.802;2023-09-30T03:25:10;102279.34;;;19.26;nan
79372;BME280;68914;51.262;6.802;2023-09-30T03:26:11;102278.59;;;19.19;nan
79372;BME280;68914;51.262;6.802;2023-09-30T03:27:12;102280.63;;;19.42;nan
79372;BME280;68914;51.262;6.802;2023-09-30T03:28:13;102272.31;;;19.50;nan
79372;BME280;68914;51.262;6.802;2023-09-30T03:29:15;102281.00;;;19.71;nan
79372;BME280;68914;51.262;6.802;2023-09-30T03:30:16;102281.75;;;19.78;nan
79372;BME280;68914;51.262;6.802;2023-09-30T03:31:20;102282.19;;;19.75;nan
79372;BME280;68914;51.262;6.802;2023-09-30T03:32:21;102282.44;;;19.48;nan
79372;BME280;68914;51.262;6.802;2023-09-30T03:33:21;102286.13;;;19.29;nan
79372;BME280;68914;51.262;6.802;2023-09-30T03:34:22;102271.22;;;19.14;nan
79372;BME280;68914;51.262;6.802;2023-09-30T03:35:23;102272.06;;;18.83;nan
79372;BME280;68914;51.262;6.802;2023-09-30T03:36:24;102272.22;;;18.57;nan
79372;BME280;68914;51.262;6.802;2023-09-30T03:37:25;102264.25;;;19.32;nan
79372;BME280;68914;51.262;6.802;2023-09-30T03:38:27;102274.59;;;19.28;nan
79372;BME280;68914;51.262;6.802;2023-09-30T03:39:27;102267.59;;;19.52;nan
79372;BME280;68914;51.262;6.802;2023-09-30T03:40:28;102269.53;;;18.95;nan
79372;BME280;68914;51.262;6.802;2023-09-30T03:41:34;102273.97;;;18.76;nan
79372;BME280;68914;51.262;6.802;2023-09-30T03:42:38;102283.13;;;18.55;nan
79372;BME280;68914;51.262;6.802;2023-09-30T03:43:39;102289.97;;;18.44;nan
79372;BME280;68914;51.262;6.802;2023-09-30T03:44:46;102287.22;;;18.58;nan
79372;BME280;68914;51.262;6.802;2023-09-30T03:45:47;102294.31;;;18.39;nan
79372;BME280;68914;51.262;6.802;2023-09-30T03:46:47;102290.75;;;18.13;nan
79372;BME280;68914;51.262;6.802;2023-09-30T03:47:48;102283.22;;;18.42;nan
79372;BME280;68914;51.262;6.802;2023-09-30T03:48:51;102278.03;;;18.85;nan
79372;BME280;68914;51.262;6.802;2023-09-30T03:49:52;102279.78;;;19.23;nan
79372;BME280;68914;51.262;6.802;2023-09-30T03:50:54;102263.63;;;19.36;nan
79372;BME280;68914;51.262;6.802;2023-09-30T03:51:55;102269.41;;;19.08;nan
79372;BME280;68914;51.262;6.802;2023-09-30T03:53:05;102271.56;;;19.25;nan
79372;BME280;68914;51.262;6.802;2023-09-30T03:54:07;102270.44;;;18.82;nan
79372;BME280;68914;51.262;6.802;2023-09-30T03:55:09;102263.38;;;18.95;nan
79372;BME280;68914;51.262;6.802;2023-09-30T03:56:12;102262.59;;;18.87;nan
79372;BME280;68914;51.262;6.802;2023-09-30T03:57:13;102265.19;;;18.69;nan
79372;BME280;68914;51.262;6.802;2023-09-30T03:58:16;102255.88;;;18.78;nan
79372;BME280;68914;51.262;6.802;2023-09-30T03:59:18;102262.16;;;18.21;nan
79372;BME280;68914;51.262;6.802;2023-09-30T04:00:22;102267.97;;;18.49;nan
79372;BME280;68914;51.262;6.802;2023-09-30T04:01:24;102264.75;;;18.72;nan
79372;BME280;68914;51.262;6.802;2023-09-30T04:02:26;102274.13;;;18.50;nan
79372;BME280;68914;51.262;6.802;2023-09-30T04:03:27;102267.22;;;18.99;nan
79372;BME280;68914;51.262;6.802;2023-09-30T04:04:29;102275.78;;;18.44;nan
79372;BME280;68914;51.262;6.802;2023-09-30T04:05:30;102264.78;;;18.65;nan
79372;BME280;68914;51.262;6.802;2023-09-30T04:06:32;102276.84;;;18.43;nan
79372;BME280;68914;51.262;6.802;2023-09-30T04:07:33;102279.94;;;18.78;nan
79372;BME280;68914;51.262;6.802;2023-09-30T04:08:36;102280.66;;;18.92;nan
79372;BME280;68914;51.262;6.802;2023-09-30T04:09:37;102281.25;;;18.94;nan
79372;BME280;68914;51.262;6.802;2023-09-30T04:10:38;102288.66;;;19.42;nan
79372;BME280;68914;51.262;6.802;2023-09-30T04:11:38;102286.41;;;19.21;nan
79372;BME280;68914;51.262;6.802;2023-09-30T04:12:39;102282.81;;;18.77;nan
79372;BME280;68914;51.262;6.802;2023-09-30T04:13:40;102281.56;;;19.04;nan
79372;BME280;68914;51.262;6.802;2023-09-30T04:14:43;102279.72;;;18.80;nan
79372;BME280;68914;51.262;6.802;2023-09-30T04:15:44;102272.50;;;18.80;nan
79372;BME280;68914;51.262;6.802;2023-09-30T04:16:45;102272.31;;;18.82;nan
79372;BME280;68914;51.262;6.802;2023-09-30T04:17:47;102275.47;;;18.65;nan
79372;BME280;68914;51.262;6.802;2023-09-30T04:18:47;102276.03;;;17.91;nan
79372;BME280;68914;51.262;6.802;2023-09-30T04:19:50;102273.78;;;17.88;nan
79372;BME280;68914;51.262;6.802;2023-09-30T04:20:52;102266.38;;;18.41;nan
79372;BME280;68914;51.262;6.802;2023-09-30T04:21:53;102266.56;;;18.78;nan
79372;BME280;68914;51.262;6.802;2023-09-30T04:22:54;102273.75;;;18.46;nan
79372;BME280;68914;51.262;6.802;2023-09-30T04:23:57;102267.13;;;19.12;nan
79372;BME280;68914;51.262;6.802;2023-09-30T04:24:58;102267.06;;;19.19;nan
79372;BME280;68914;51.262;6.802;2023-09-30T04:25:59;102267.88;;;19.19;nan
79372;BME280;68914;51.262;6.802;2023-09-30T04:26:59;102273.47;;;19.17;nan
79372;BME280;68914;51.262;6.802;2023-09-30T04:28:03;102264.97;;;18.71;nan
79372;BME280;68914;51.262;6.802;2023-09-30T04:29:04;102255.72;;;18.73;nan
79372;BME280;68914;51.262;6.802;2023-09-30T04:30:06;102262.50;;;18.37;nan
79372;BME280;68914;51.262;6.802;2023-09-30T04:31:09;102263.44;;;18.50;nan
79372;BME280;68914;51.262;6.802;2023-09-30T04:32:10;102262.66;;;18.42;nan
79372;BME280;68914;51.262;6.802;2023-09-30T04:33:11;102257.13;;;18.76;nan
79372;BME280;68914;51.262;6.802;2023-09-30T04:34:13;102267.13;;;18.10;nan
79372;BME280;68914;51.262;6.802;2023-09-30T04:35:14;102267.97;;;18.49;nan
79372;BME280;68914;51.262;6.802;2023-09-30T04:36:15;102268.00;;;18.81;nan
79372;BME280;68914;51.262;6.802;2023-09-30T04:37:16;102270.44;;;18.82;nan
79372;BME280;68914;51.262;6.802;2023-09-30T04:38:16;102269.94;;;18.92;nan
79372;BME280;68914;51.262;6.802;2023-09-30T04:39:17;102271.94;;;19.28;nan
79372;BME280;68914;51.262;6.802;2023-09-30T04:40:18;102276.44;;;18.78;nan
79372;BME280;68914;51.262;6.802;2023-09-30T04:41:22;102278.66;;;19.12;nan
79372;BME280;68914;51.262;6.802;2023-09-30T04:42:22;102280.91;;;18.84;nan
79372;BME280;68914;51.262;6.802;2023-09-30T04:43:25;102293.22;;;18.08;nan
79372;BME280;68914;51.262;6.802;2023-09-30T04:44:29;102282.06;;;18.95;nan
79372;BME280;68914;51.262;6.802;2023-09-30T04:45:30;102289.66;;;18.66;nan
79372;BME280;68914;51.262;6.802;2023-09-30T04:46:30;102288.03;;;18.97;nan
79372;BME280;68914;51.262;6.802;2023-09-30T04:47:31;102293.25;;;18.85;nan
79372;BME280;68914;51.262;6.802;2023-09-30T04:48:32;102300.78;;;18.18;nan
79372;BME280;68914;51.262;6.802;2023-09-30T04:49:33;102303.09;;;18.84;nan
79372;BME280;68914;51.262;6.802;2023-09-30T04:50:36;102291.91;;;19.01;nan
79372;BME280;68914;51.262;6.802;2023-09-30T04:51:39;102302.25;;;18.52;nan
79372;BME280;68914;51.262;6.802;2023-09-30T04:52:40;102300.56;;;18.96;nan
79372;BME280;68914;51.262;6.802;2023-09-30T04:53:40;102302.84;;;18.92;nan
79372;BME280;68914;51.262;6.802;2023-09-30T04:54:41;102306.22;;;19.13;nan
79372;BME280;68914;51.262;6.802;2023-09-30T04:55:42;102301.75;;;18.68;nan
79372;BME280;68914;51.262;6.802;2023-09-30T04:56:42;102302.59;;;19.01;nan
79372;BME280;68914;51.262;6.802;2023-09-30T04:57:46;102300.91;;;19.06;nan
79372;BME280;68914;51.262;6.802;2023-09-30T04:58:47;102298.06;;;19.01;nan
79372;BME280;68914;51.262;6.802;2023-09-30T04:59:48;102298.00;;;19.08;nan
79372;BME280;68914;51.262;6.802;2023-09-30T05:00:49;102299.75;;;18.96;nan
79372;BME280;68914;51.262;6.802;2023-09-30T05:01:50;102299.53;;;18.59;nan
79372;BME280;68914;51.262;6.802;2023-09-30T05:02:51;102295.44;;;18.56;nan
79372;BME280;68914;51.262;6.802;2023-09-30T05:03:55;102296.34;;;18.82;nan
79372;BME280;68914;51.262;6.802;2023-09-30T05:04:56;102302.75;;;18.81;nan
79372;BME280;68914;51.262;6.802;2023-09-30T05:05:56;102307.69;;;18.77;nan
79372;BME280;68914;51.262;6.802;2023-09-30T05:06:58;102304.28;;;18.95;nan
79372;BME280;68914;51.262;6.802;2023-09-30T05:07:59;102307.72;;;19.02;nan
79372;BME280;68914;51.262;6.802;2023-09-30T05:09:00;102313.69;;;19.29;nan
79372;BME280;68914;51.262;6.802;2023-09-30T05:10:01;102310.22;;;19.22;nan
79372;BME280;68914;51.262;6.802;2023-09-30T05:11:05;102309.84;;;19.44;nan
79372;BME280;68914;51.262;6.802;2023-09-30T05:12:06;102303.75;;;19.55;nan
79372;BME280;68914;51.262;6.802;2023-09-30T05:13:06;102310.72;;;19.37;nan
79372;BME280;68914;51.262;6.802;2023-09-30T05:14:07;102311.56;;;19.13;nan
79372;BME280;68914;51.262;6.802;2023-09-30T05:15:08;102311.81;;;19.05;nan
79372;BME280;68914;51.262;6.802;2023-09-30T05:16:09;102308.88;;;19.13;nan
79372;BME280;68914;51.262;6.802;2023-09-30T05:17:09;102313.19;;;19.14;nan
79372;BME280;68914;51.262;6.802;2023-09-30T05:18:10;102314.22;;;19.13;nan
79372;BME280;68914;51.262;6.802;2023-09-30T05:19:11;102311.94;;;19.16;nan
79372;BME280;68914;51.262;6.802;2023-09-30T05:20:12;102312.41;;;19.07;nan
79372;BME280;68914;51.262;6.802;2023-09-30T05:21:13;102306.94;;;18.95;nan
79372;BME280;68914;51.262;6.802;2023-09-30T05:22:13;102311.56;;;18.81;nan
79372;BME280;68914;51.262;6.802;2023-09-30T05:23:15;102316.16;;;18.99;nan
79372;BME280;68914;51.262;6.802;2023-09-30T05:24:16;102311.69;;;18.93;nan
79372;BME280;68914;51.262;6.802;2023-09-30T05:25:19;102313.78;;;18.84;nan
79372;BME280;68914;51.262;6.802;2023-09-30T05:26:20;102318.59;;;18.76;nan